createdAt,value
2022-10-01T00:00:10.959Z,100222.83
2022-10-01T00:03:09.575Z,100221.70
2022-10-01T00:05:55.928Z,100217.38
2022-10-01T00:08:41.983Z,100213.09
2022-10-01T00:11:25.353Z,100218.92
2022-10-01T00:14:42.941Z,100223.02
2022-10-01T00:18:09.301Z,100220.42
2022-10-01T00:25:04.438Z,100221.06
2022-10-01T00:28:42.936Z,100223.75
2022-10-01T00:31:32.291Z,100222.17
2022-10-01T00:34:27.464Z,100223.31
2022-10-01T00:37:07.600Z,100221.73
2022-10-01T00:39:53.786Z,100222.40
2022-10-01T00:42:40.091Z,100221.75
2022-10-01T00:45:35.854Z,100219.43
2022-10-01T00:48:14.164Z,100221.58
2022-10-01T00:52:05.296Z,100222.72
2022-10-01T00:55:00.942Z,100218.62
2022-10-01T01:01:32.953Z,100219.48
2022-10-01T01:04:35.966Z,100220.62
2022-10-01T01:08:07.364Z,100219.04
2022-10-01T01:11:53.188Z,100217.94
2022-10-01T01:14:40.287Z,100214.38
2022-10-01T01:18:56.962Z,100208.20
2022-10-01T01:22:04.122Z,100204.41
2022-10-01T01:25:21.573Z,100201.77
2022-10-01T01:28:42.782Z,100198.45
2022-10-01T01:31:59.386Z,100194.98
2022-10-01T01:35:09.192Z,100192.33
2022-10-01T01:38:33.134Z,100196.81
2022-10-01T01:41:31.538Z,100198.44
2022-10-01T01:45:29.233Z,100198.27
2022-10-01T01:48:24.103Z,100194.77
2022-10-01T01:51:19.280Z,100193.16
2022-10-01T01:54:00.386Z,100193.98
2022-10-01T01:56:59.822Z,100193.02
2022-10-01T02:00:20.973Z,100194.80
2022-10-01T02:03:30.937Z,100191.55
2022-10-01T02:07:05.935Z,100190.86
2022-10-01T02:10:11.647Z,100190.54
2022-10-01T02:13:25.439Z,100191.85
2022-10-01T02:16:45.298Z,100191.28
2022-10-01T02:20:15.867Z,100192.43
2022-10-01T02:23:51.561Z,100190.39
2022-10-01T02:27:26.564Z,100181.72
2022-10-01T02:30:14.004Z,100179.65
2022-10-01T02:33:13.532Z,100180.58
2022-10-01T02:36:00.874Z,100172.23
2022-10-01T02:38:53.228Z,100169.24
2022-10-01T02:41:38.400Z,100171.36
2022-10-01T02:44:48.575Z,100167.29
2022-10-01T02:51:53.157Z,100154.52
2022-10-01T02:55:10.681Z,100152.73
2022-10-01T02:58:08.605Z,100147.52
2022-10-01T03:04:38.974Z,100142.40
2022-10-01T03:32:49.203Z,100129.14
2022-10-01T03:35:45.360Z,100126.54
2022-10-01T03:38:43.865Z,100130.17
2022-10-01T03:41:41.330Z,100128.45
2022-10-01T03:47:43.849Z,100130.86
2022-10-01T03:50:20.376Z,100134.34
2022-10-01T03:53:22.838Z,100135.77
2022-10-01T04:03:57.958Z,100124.46
2022-10-01T04:09:13.179Z,100123.29
2022-10-01T04:10:57.799Z,100118.07
2022-10-01T04:14:39.657Z,100117.38
2022-10-01T04:17:45.974Z,100119.48
2022-10-01T04:21:33.221Z,100113.71
2022-10-01T04:24:47.032Z,100107.33
2022-10-01T04:32:01.331Z,100098.45
2022-10-01T04:35:07.866Z,100095.07
2022-10-01T04:38:27.333Z,100094.23
2022-10-01T04:41:35.898Z,100089.08
2022-10-01T04:44:31.763Z,100091.86
2022-10-01T04:47:36.824Z,100097.91
2022-10-01T04:50:36.491Z,100099.33
2022-10-01T04:53:25.773Z,100101.98
2022-10-01T04:56:27.111Z,100103.02
2022-10-01T04:59:30.106Z,100105.18
2022-10-01T05:02:26.486Z,100104.55
2022-10-01T05:09:43.168Z,100104.73
2022-10-01T05:12:49.048Z,100106.66
2022-10-01T05:15:37.522Z,100108.70
2022-10-01T05:18:18.382Z,100106.97
2022-10-01T05:20:50.979Z,100108.69
2022-10-01T05:23:24.949Z,100109.77
2022-10-01T05:25:56.102Z,100111.09
2022-10-01T05:28:29.479Z,100110.88
2022-10-01T05:31:02.841Z,100107.86
2022-10-01T05:33:32.445Z,100110.84
2022-10-01T05:36:02.495Z,100112.30
2022-10-01T05:38:37.851Z,100112.09
2022-10-01T05:41:10.109Z,100112.02
2022-10-01T05:43:44.554Z,100110.70
2022-10-01T05:46:14.142Z,100108.55
2022-10-01T05:48:43.309Z,100107.44
2022-10-01T05:51:14.028Z,100104.55
2022-10-01T05:54:21.685Z,100100.90
2022-10-01T05:57:11.521Z,100098.22
2022-10-01T06:00:15.174Z,100099.84
2022-10-01T06:02:53.991Z,100098.73
2022-10-01T06:05:31.906Z,100102.90
2022-10-01T06:08:38.871Z,100104.16
2022-10-01T06:14:58.071Z,100101.08
2022-10-01T06:18:20.665Z,100103.48
2022-10-01T06:21:12.237Z,100107.89
2022-10-01T06:30:28.990Z,100108.45
2022-10-01T06:36:47.067Z,100099.66
2022-10-01T06:39:59.562Z,100098.68
2022-10-01T06:44:08.710Z,100101.63
2022-10-01T06:47:12.929Z,100103.29
2022-10-01T06:50:21.931Z,100104.60
2022-10-01T06:53:59.102Z,100101.36
2022-10-01T06:58:50.744Z,100099.38
2022-10-01T07:01:04.764Z,100098.00
2022-10-01T07:04:34.392Z,100094.87
2022-10-01T07:07:57.303Z,100089.69
2022-10-01T07:11:11.314Z,100082.55
2022-10-01T07:13:59.270Z,100078.09
2022-10-01T07:17:25.559Z,100078.80
2022-10-01T07:20:18.474Z,100078.04
2022-10-01T07:23:05.357Z,100075.52
2022-10-01T07:25:55.380Z,100075.73
2022-10-01T07:28:59.586Z,100070.78
2022-10-01T07:32:21.216Z,100066.07
2022-10-01T07:38:51.557Z,100059.60
2022-10-01T07:42:12.939Z,100058.52
2022-10-01T07:44:58.522Z,100056.88
2022-10-01T07:48:06.724Z,100053.67
2022-10-01T07:51:08.125Z,100052.40
2022-10-01T07:54:04.893Z,100055.05
2022-10-01T07:57:09.957Z,100058.05
2022-10-01T08:00:03.157Z,100051.70
2022-10-01T08:03:24.198Z,100049.08
2022-10-01T08:06:25.402Z,100049.61
2022-10-01T08:10:09.278Z,100041.27
2022-10-01T08:13:24.907Z,100037.63
2022-10-01T08:19:55.045Z,100037.54
2022-10-01T08:22:39.796Z,100035.11
2022-10-01T08:25:14.369Z,100032.30
2022-10-01T08:27:45.962Z,100033.92
2022-10-01T08:30:21.719Z,100033.20
2022-10-01T08:33:01.886Z,100034.89
2022-10-01T08:35:39.540Z,100030.27
2022-10-01T08:38:11.172Z,100023.26
2022-10-01T08:41:23.110Z,100020.42
2022-10-01T08:43:54.032Z,100024.51
2022-10-01T08:46:29.692Z,100018.00
2022-10-01T08:49:23.824Z,100015.17
2022-10-01T08:52:07.673Z,100010.65
2022-10-01T08:54:50.194Z,100003.93
2022-10-01T08:57:25.810Z,99998.14
2022-10-01T09:00:21.965Z,99994.20
2022-10-01T09:02:53.244Z,99991.19
2022-10-01T09:06:06.763Z,99991.85
2022-10-01T09:09:04.675Z,99985.30
2022-10-01T09:12:25.190Z,99973.85
2022-10-01T09:15:27.740Z,99960.48
2022-10-01T09:19:06.719Z,99953.56
2022-10-01T09:22:40.602Z,99947.55
2022-10-01T09:25:10.452Z,99943.79
2022-10-01T09:27:42.007Z,99934.38
2022-10-01T09:30:40.741Z,99933.17
2022-10-01T09:33:20.353Z,99931.23
2022-10-01T09:36:16.379Z,99924.25
2022-10-01T09:39:35.397Z,99918.03
2022-10-01T09:42:04.728Z,99911.06
2022-10-01T09:44:37.652Z,99906.70
2022-10-01T09:47:22.250Z,99905.56
2022-10-01T09:49:53.044Z,99899.55
2022-10-01T09:52:35.041Z,99901.32
2022-10-01T09:55:41.547Z,99903.77
2022-10-01T09:58:21.061Z,99906.13
2022-10-01T10:00:55.437Z,99903.55
2022-10-01T10:03:32.100Z,99901.85
2022-10-01T10:06:03.869Z,99900.17
2022-10-01T10:08:44.158Z,99889.80
2022-10-01T10:11:26.805Z,99896.07
2022-10-01T10:14:04.856Z,99890.67
2022-10-01T10:16:47.866Z,99884.58
2022-10-01T10:19:28.714Z,99882.02
2022-10-01T10:22:11.210Z,99882.19
2022-10-01T10:24:45.361Z,99878.20
2022-10-01T10:27:56.535Z,99869.77
2022-10-01T10:30:29.829Z,99869.02
2022-10-01T10:33:06.196Z,99866.95
2022-10-01T10:35:37.749Z,99860.82
2022-10-01T10:38:25.827Z,99850.77
2022-10-01T10:40:54.935Z,99846.73
2022-10-01T10:43:36.388Z,99840.39
2022-10-01T10:46:11.125Z,99833.58
2022-10-01T10:48:49.811Z,99829.03
2022-10-01T10:51:21.811Z,99827.34
2022-10-01T10:53:59.992Z,99822.60
2022-10-01T10:56:30.261Z,99818.19
2022-10-01T10:59:11.049Z,99813.86
2022-10-01T11:01:43.485Z,99807.66
2022-10-01T11:04:33.195Z,99801.09
2022-10-01T11:07:04.432Z,99792.82
2022-10-01T11:10:55.475Z,99793.23
2022-10-01T11:13:43.296Z,99788.81
2022-10-01T11:20:27.807Z,99775.45
2022-10-01T11:23:34.238Z,99770.81
2022-10-01T11:26:19.540Z,99770.26
2022-10-01T11:29:09.614Z,99764.61
2022-10-01T11:32:30.229Z,99759.52
2022-10-01T11:35:42.368Z,99758.75
2022-10-01T11:38:51.087Z,99757.54
2022-10-01T11:41:48.692Z,99751.19
2022-10-01T11:44:41.791Z,99753.33
2022-10-01T11:47:34.093Z,99748.58
2022-10-01T11:50:28.930Z,99752.13
2022-10-01T11:53:14.454Z,99749.95
2022-10-01T11:56:10.238Z,99747.48
2022-10-01T11:59:20.407Z,99737.70
2022-10-01T12:02:19.745Z,99736.28
2022-10-01T12:05:21.133Z,99730.84
2022-10-01T12:08:23.644Z,99734.14
2022-10-01T12:11:09.988Z,99729.56
2022-10-01T12:14:04.892Z,99726.57
2022-10-01T12:17:28.992Z,99724.29
2022-10-01T12:20:20.741Z,99725.83
2022-10-01T12:22:53.973Z,99722.09
2022-10-01T12:25:50.543Z,99718.02
2022-10-01T12:29:00.141Z,99714.08
2022-10-01T12:32:18.517Z,99704.44
2022-10-01T12:35:51.786Z,99702.80
2022-10-01T12:38:58.939Z,99701.31
2022-10-01T12:42:19.915Z,99698.81
2022-10-01T12:45:10.036Z,99697.80
2022-10-01T12:48:20.908Z,99694.22
2022-10-01T12:51:31.939Z,99687.21
2022-10-01T12:54:37.654Z,99682.71
2022-10-01T12:57:21.997Z,99678.39
2022-10-01T13:00:25.325Z,99674.59
2022-10-01T13:03:11.643Z,99671.77
2022-10-01T13:06:26.379Z,99669.44
2022-10-01T13:09:35.245Z,99667.27
2022-10-01T13:12:49.185Z,99664.79
2022-10-01T13:15:33.293Z,99663.96
2022-10-01T13:18:28.908Z,99660.12
2022-10-01T13:21:13.046Z,99653.90
2022-10-01T13:24:03.311Z,99652.70
2022-10-01T13:27:01.359Z,99649.30
2022-10-01T13:30:07.937Z,99645.37
2022-10-01T13:33:01.090Z,99640.50
2022-10-01T13:35:40.431Z,99635.44
2022-10-01T13:38:31.749Z,99631.00
2022-10-01T13:41:07.843Z,99628.60
2022-10-01T13:43:38.809Z,99621.21
2022-10-01T13:46:11.517Z,99612.38
2022-10-01T13:48:51.714Z,99606.88
2022-10-01T13:51:20.924Z,99611.66
2022-10-01T13:54:02.498Z,99609.08
2022-10-01T13:56:37.828Z,99605.74
2022-10-01T13:59:39.669Z,99607.56
2022-10-01T14:02:59.052Z,99602.55
2022-10-01T14:05:45.656Z,99600.42
2022-10-01T14:08:35.801Z,99595.40
2022-10-01T14:11:42.726Z,99590.01
2022-10-01T14:14:42.267Z,99586.08
2022-10-01T14:17:15.846Z,99582.98
2022-10-01T14:19:47.252Z,99583.65
2022-10-01T14:22:42.210Z,99579.80
2022-10-01T14:25:24.114Z,99577.42
2022-10-01T14:28:11.081Z,99572.81
2022-10-01T14:31:29.726Z,99569.56
2022-10-01T14:34:16.883Z,99565.84
2022-10-01T14:36:51.143Z,99565.56
2022-10-01T14:39:27.242Z,99562.61
2022-10-01T14:41:58.675Z,99559.80
2022-10-01T14:44:42.159Z,99558.42
2022-10-01T14:47:26.148Z,99554.84
2022-10-01T14:49:57.729Z,99554.44
2022-10-01T14:52:32.496Z,99552.83
2022-10-01T14:55:13.853Z,99547.48
2022-10-01T14:57:50.440Z,99545.09
2022-10-01T15:00:24.143Z,99543.20
2022-10-01T15:03:23.761Z,99538.70
2022-10-01T15:06:03.982Z,99532.56
2022-10-01T15:08:45.861Z,99530.02
2022-10-01T15:11:27.627Z,99528.73
2022-10-01T15:14:08.439Z,99521.62
2022-10-01T15:16:38.094Z,99518.73
2022-10-01T15:19:15.298Z,99514.50
2022-10-01T15:21:55.291Z,99513.55
2022-10-01T15:24:47.334Z,99512.55
2022-10-01T15:27:21.547Z,99507.86
2022-10-01T15:29:56.538Z,99508.70
2022-10-01T15:32:28.292Z,99504.13
2022-10-01T15:35:03.375Z,99506.91
2022-10-01T15:37:36.541Z,99507.88
2022-10-01T15:40:23.592Z,99505.18
2022-10-01T15:43:42.766Z,99505.59
2022-10-01T15:46:20.853Z,99506.20
2022-10-01T15:49:17.544Z,99500.61
2022-10-01T15:52:19.909Z,99500.33
2022-10-01T15:54:59.241Z,99503.53
2022-10-01T15:57:31.835Z,99500.28
2022-10-01T16:00:03.834Z,99496.41
2022-10-01T16:02:38.607Z,99500.24
2022-10-01T16:05:09.150Z,99494.68
2022-10-01T16:07:42.560Z,99491.45
2022-10-01T16:10:42.609Z,99492.34
2022-10-01T16:13:43.102Z,99488.25
2022-10-01T16:16:20.282Z,99485.33
2022-10-01T16:18:58.886Z,99485.55
2022-10-01T16:21:28.005Z,99489.23
2022-10-01T16:23:59.513Z,99500.06
2022-10-01T16:26:28.818Z,99526.12
2022-10-01T16:29:00.210Z,99539.05
2022-10-01T16:31:31.036Z,99542.14
2022-10-01T16:34:00.172Z,99541.76
2022-10-01T16:36:32.198Z,99542.11
2022-10-01T16:39:03.645Z,99537.97
2022-10-01T16:41:36.801Z,99539.87
2022-10-01T16:44:06.785Z,99544.41
2022-10-01T16:46:36.786Z,99547.02
2022-10-01T16:49:14.435Z,99546.26
2022-10-01T16:51:43.487Z,99548.98
2022-10-01T16:54:26.209Z,99549.46
2022-10-01T16:56:56.078Z,99551.52
2022-10-01T16:59:25.453Z,99551.09
2022-10-01T17:01:57.549Z,99550.98
2022-10-01T17:04:34.729Z,99550.74
2022-10-01T17:07:03.874Z,99550.95
2022-10-01T17:09:37.975Z,99552.02
2022-10-01T17:12:12.308Z,99554.04
2022-10-01T17:14:48.310Z,99552.36
2022-10-01T17:17:58.815Z,99552.29
2022-10-01T17:20:33.375Z,99554.23
2022-10-01T17:23:08.631Z,99552.73
2022-10-01T17:25:41.585Z,99548.89
2022-10-01T17:28:15.578Z,99549.25
2022-10-01T17:30:48.417Z,99549.77
2022-10-01T17:33:24.245Z,99551.11
2022-10-01T17:35:56.129Z,99549.86
2022-10-01T17:38:32.012Z,99551.97
2022-10-01T17:41:06.040Z,99550.15
2022-10-01T17:43:37.135Z,99546.16
2022-10-01T17:46:06.499Z,99545.55
2022-10-01T17:48:35.561Z,99547.20
2022-10-01T17:51:13.607Z,99545.16
2022-10-01T17:53:49.241Z,99540.43
2022-10-01T17:56:33.503Z,99545.54
2022-10-01T17:59:03.326Z,99549.02
2022-10-01T18:01:32.750Z,99549.21
2022-10-01T18:04:43.675Z,99549.39
2022-10-01T18:07:20.548Z,99544.27
2022-10-01T18:09:54.819Z,99544.21
2022-10-01T18:12:24.542Z,99549.15
2022-10-01T18:15:27.270Z,99548.16
2022-10-01T18:19:12.720Z,99550.82
2022-10-01T18:22:25.931Z,99550.52
2022-10-01T18:24:55.377Z,99550.70
2022-10-01T18:27:38.630Z,99554.81
2022-10-01T18:30:38.916Z,99554.68
2022-10-01T18:33:12.033Z,99552.88
2022-10-01T18:36:13.084Z,99550.91
2022-10-01T18:38:52.947Z,99547.60
2022-10-01T18:47:20.123Z,99551.81
2022-10-01T18:51:11.893Z,99549.00
2022-10-01T18:55:10.475Z,99550.83
2022-10-01T18:58:20.370Z,99553.60
2022-10-01T19:02:20.010Z,99552.27
2022-10-01T19:06:13.167Z,99550.14
2022-10-01T19:13:51.233Z,99559.20
2022-10-01T19:17:04.718Z,99559.02
2022-10-01T19:20:25.037Z,99562.16
2022-10-01T19:24:26.223Z,99562.33
2022-10-01T19:28:03.115Z,99563.23
2022-10-01T19:31:52.062Z,99564.40
2022-10-01T19:35:22.023Z,99560.69
2022-10-01T19:38:20.715Z,99561.88
2022-10-01T19:42:15.794Z,99562.52
2022-10-01T19:45:11.621Z,99560.39
2022-10-01T19:48:22.784Z,99561.52
2022-10-01T19:51:33.976Z,99561.45
2022-10-01T19:54:34.545Z,99565.45
2022-10-01T19:57:55.402Z,99566.09
2022-10-01T20:00:56.010Z,99566.95
2022-10-01T20:04:23.176Z,99562.45
2022-10-01T20:07:41.200Z,99565.83
2022-10-01T20:12:07.707Z,99565.91
2022-10-01T20:15:54.780Z,99567.06
2022-10-01T20:23:46.181Z,99574.06
2022-10-01T20:26:54.841Z,99578.45
2022-10-01T20:30:21.423Z,99580.84
2022-10-01T20:37:34.743Z,99579.99
2022-10-01T20:40:54.415Z,99582.86
2022-10-01T20:46:06.156Z,99586.13
2022-10-01T20:47:56.081Z,99585.30
2022-10-01T20:51:16.604Z,99584.71
2022-10-01T20:54:52.441Z,99591.50
2022-10-01T21:12:07.980Z,99592.37
2022-10-01T21:34:18.029Z,99600.22
2022-10-01T21:38:04.282Z,99601.52
2022-10-01T21:41:30.661Z,99604.70
2022-10-01T21:44:28.173Z,99610.02
2022-10-01T21:48:00.456Z,99609.33
2022-10-01T21:51:11.890Z,99616.20
2022-10-01T21:55:02.715Z,99613.66
2022-10-01T22:07:52.346Z,99615.39
2022-10-01T22:17:54.381Z,99624.59
2022-10-01T22:27:58.402Z,99632.56
2022-10-01T22:31:12.575Z,99632.08
2022-10-01T22:34:55.841Z,99629.85
2022-10-01T22:38:14.087Z,99627.88
2022-10-01T22:41:08.091Z,99634.90
2022-10-01T22:47:48.507Z,99638.29
2022-10-01T23:01:48.816Z,99647.77
2022-10-01T23:13:35.051Z,99653.11
2022-10-01T23:16:40.297Z,99653.86
2022-10-01T23:23:43.525Z,99661.23
2022-10-01T23:29:39.425Z,99665.23
2022-10-01T23:35:18.389Z,99671.05
2022-10-01T23:38:56.445Z,99671.98
2022-10-01T23:51:10.923Z,99688.20
2022-10-01T23:54:48.999Z,99691.09
2022-10-01T23:58:28.776Z,99693.17
